Terminal Aerodrome Forecast
Issued by NWS

Home | Current Version | Previous Version | Text Only | Print | Product List | Glossary On
Versions: 1 2 3 4 5 6 7 8 9 10 11 12 13 14 15 16 17 18 19 20 21 22 23
175
FTUS44 KEWX 191129
TAFSSF
TAF
KSSF 191129Z 1912/2012 18004KT P6SM SCT015
      TEMPO 1912/1913 BKN015
     FM191500 17007KT P6SM FEW040
     FM192100 13010KT P6SM FEW060=

USA.gov is the U.S. government's official web portal to all federal, state and local government web resources and services.